sensor_id;sensor_type;location;lat;lon;timestamp;P1;durP1;ratioP1;P2;durP2;ratioP2
20855;SDS011;63058;49.424;8.420;2023-01-29T00:01:53;5.10;;;4.60;;
20855;SDS011;63058;49.424;8.420;2023-01-29T00:04:19;6.10;;;5.07;;
20855;SDS011;63058;49.424;8.420;2023-01-29T00:06:44;6.47;;;5.70;;
20855;SDS011;63058;49.424;8.420;2023-01-29T00:09:10;6.70;;;5.53;;
20855;SDS011;63058;49.424;8.420;2023-01-29T00:11:37;7.00;;;5.97;;
20855;SDS011;63058;49.424;8.420;2023-01-29T00:14:02;5.87;;;5.20;;
20855;SDS011;63058;49.424;8.420;2023-01-29T00:16:28;5.80;;;5.20;;
20855;SDS011;63058;49.424;8.420;2023-01-29T00:18:53;6.17;;;5.57;;
20855;SDS011;63058;49.424;8.420;2023-01-29T00:21:20;5.90;;;5.23;;
20855;SDS011;63058;49.424;8.420;2023-01-29T00:23:46;5.47;;;4.97;;
20855;SDS011;63058;49.424;8.420;2023-01-29T00:26:13;5.47;;;4.90;;
20855;SDS011;63058;49.424;8.420;2023-01-29T00:28:39;5.70;;;5.10;;
20855;SDS011;63058;49.424;8.420;2023-01-29T00:31:05;5.13;;;4.63;;
20855;SDS011;63058;49.424;8.420;2023-01-29T00:33:32;6.73;;;5.03;;
20855;SDS011;63058;49.424;8.420;2023-01-29T00:35:57;6.90;;;5.77;;
20855;SDS011;63058;49.424;8.420;2023-01-29T00:38:25;7.13;;;5.73;;
20855;SDS011;63058;49.424;8.420;2023-01-29T00:40:51;5.97;;;5.37;;
20855;SDS011;63058;49.424;8.420;2023-01-29T00:43:35;6.87;;;5.80;;
20855;SDS011;63058;49.424;8.420;2023-01-29T00:46:19;5.97;;;5.37;;
20855;SDS011;63058;49.424;8.420;2023-01-29T00:48:44;5.87;;;5.27;;
20855;SDS011;63058;49.424;8.420;2023-01-29T00:51:10;6.03;;;5.30;;
20855;SDS011;63058;49.424;8.420;2023-01-29T00:53:35;6.17;;;5.50;;
20855;SDS011;63058;49.424;8.420;2023-01-29T00:56:01;6.47;;;5.77;;
20855;SDS011;63058;49.424;8.420;2023-01-29T00:58:26;6.73;;;5.63;;
20855;SDS011;63058;49.424;8.420;2023-01-29T01:00:58;6.63;;;5.57;;
20855;SDS011;63058;49.424;8.420;2023-01-29T01:03:26;6.00;;;5.40;;
20855;SDS011;63058;49.424;8.420;2023-01-29T01:06:06;5.93;;;5.13;;
20855;SDS011;63058;49.424;8.420;2023-01-29T01:08:33;5.77;;;5.17;;
20855;SDS011;63058;49.424;8.420;2023-01-29T01:11:17;5.97;;;5.33;;
20855;SDS011;63058;49.424;8.420;2023-01-29T01:13:43;5.93;;;5.33;;
20855;SDS011;63058;49.424;8.420;2023-01-29T01:16:13;5.80;;;5.23;;
20855;SDS011;63058;49.424;8.420;2023-01-29T01:18:40;5.70;;;5.10;;
20855;SDS011;63058;49.424;8.420;2023-01-29T01:21:06;6.40;;;5.77;;
20855;SDS011;63058;49.424;8.420;2023-01-29T01:23:32;6.83;;;5.50;;
20855;SDS011;63058;49.424;8.420;2023-01-29T01:25:58;6.87;;;5.23;;
20855;SDS011;63058;49.424;8.420;2023-01-29T01:28:24;7.33;;;5.63;;
20855;SDS011;63058;49.424;8.420;2023-01-29T01:30:50;5.97;;;5.37;;
20855;SDS011;63058;49.424;8.420;2023-01-29T01:33:16;6.57;;;5.70;;
20855;SDS011;63058;49.424;8.420;2023-01-29T01:35:41;5.90;;;5.30;;
20855;SDS011;63058;49.424;8.420;2023-01-29T01:38:07;6.07;;;5.47;;
20855;SDS011;63058;49.424;8.420;2023-01-29T01:40:32;6.10;;;5.50;;
20855;SDS011;63058;49.424;8.420;2023-01-29T01:42:58;5.50;;;4.97;;
20855;SDS011;63058;49.424;8.420;2023-01-29T01:45:34;5.80;;;5.20;;
20855;SDS011;63058;49.424;8.420;2023-01-29T01:48:02;5.33;;;4.83;;
20855;SDS011;63058;49.424;8.420;2023-01-29T01:50:37;5.80;;;5.20;;
20855;SDS011;63058;49.424;8.420;2023-01-29T01:53:10;5.83;;;5.23;;
20855;SDS011;63058;49.424;8.420;2023-01-29T01:55:53;5.87;;;5.10;;
20855;SDS011;63058;49.424;8.420;2023-01-29T01:58:34;5.17;;;4.67;;
20855;SDS011;63058;49.424;8.420;2023-01-29T02:01:04;5.80;;;5.20;;
20855;SDS011;63058;49.424;8.420;2023-01-29T02:03:34;5.87;;;5.23;;
20855;SDS011;63058;49.424;8.420;2023-01-29T02:06:26;5.93;;;5.07;;
20855;SDS011;63058;49.424;8.420;2023-01-29T02:09:12;6.80;;;4.77;;
20855;SDS011;63058;49.424;8.420;2023-01-29T02:12:21;5.13;;;4.63;;
20855;SDS011;63058;49.424;8.420;2023-01-29T02:14:46;5.77;;;4.77;;
20855;SDS011;63058;49.424;8.420;2023-01-29T02:17:13;5.77;;;4.67;;
20855;SDS011;63058;49.424;8.420;2023-01-29T02:19:44;6.70;;;5.20;;
20855;SDS011;63058;49.424;8.420;2023-01-29T02:22:28;6.10;;;5.50;;
20855;SDS011;63058;49.424;8.420;2023-01-29T02:25:41;5.70;;;4.93;;
20855;SDS011;63058;49.424;8.420;2023-01-29T02:37:11;5.87;;;4.97;;
20855;SDS011;63058;49.424;8.420;2023-01-29T02:39:59;5.23;;;4.73;;
20855;SDS011;63058;49.424;8.420;2023-01-29T02:42:38;6.37;;;4.73;;
20855;SDS011;63058;49.424;8.420;2023-01-29T02:45:31;5.97;;;5.37;;
20855;SDS011;63058;49.424;8.420;2023-01-29T02:48:14;5.30;;;4.53;;
20855;SDS011;63058;49.424;8.420;2023-01-29T02:51:03;5.07;;;4.57;;
20855;SDS011;63058;49.424;8.420;2023-01-29T02:53:45;4.97;;;4.40;;
20855;SDS011;63058;49.424;8.420;2023-01-29T02:56:26;5.07;;;4.53;;
20855;SDS011;63058;49.424;8.420;2023-01-29T02:59:01;6.00;;;5.40;;
20855;SDS011;63058;49.424;8.420;2023-01-29T03:01:37;5.40;;;4.90;;
20855;SDS011;63058;49.424;8.420;2023-01-29T03:04:11;5.23;;;4.73;;
20855;SDS011;63058;49.424;8.420;2023-01-29T03:06:41;5.60;;;4.87;;
20855;SDS011;63058;49.424;8.420;2023-01-29T03:09:15;5.97;;;4.33;;
20855;SDS011;63058;49.424;8.420;2023-01-29T03:11:50;5.87;;;4.60;;
20855;SDS011;63058;49.424;8.420;2023-01-29T03:14:24;5.97;;;5.37;;
20855;SDS011;63058;49.424;8.420;2023-01-29T03:17:20;5.00;;;4.50;;
20855;SDS011;63058;49.424;8.420;2023-01-29T03:19:50;5.70;;;4.80;;
20855;SDS011;63058;49.424;8.420;2023-01-29T03:22:17;6.47;;;5.00;;
20855;SDS011;63058;49.424;8.420;2023-01-29T03:24:58;5.90;;;5.07;;
20855;SDS011;63058;49.424;8.420;2023-01-29T03:27:46;5.50;;;5.00;;
20855;SDS011;63058;49.424;8.420;2023-01-29T03:30:32;5.23;;;4.73;;
20855;SDS011;63058;49.424;8.420;2023-01-29T03:33:20;5.50;;;4.90;;
20855;SDS011;63058;49.424;8.420;2023-01-29T03:35:51;6.47;;;5.63;;
20855;SDS011;63058;49.424;8.420;2023-01-29T03:38:38;7.27;;;5.43;;
20855;SDS011;63058;49.424;8.420;2023-01-29T03:41:06;6.20;;;5.60;;
20855;SDS011;63058;49.424;8.420;2023-01-29T03:44:12;6.17;;;5.50;;
20855;SDS011;63058;49.424;8.420;2023-01-29T03:47:30;6.60;;;5.50;;
20855;SDS011;63058;49.424;8.420;2023-01-29T03:57:43;7.63;;;6.37;;
20855;SDS011;63058;49.424;8.420;2023-01-29T04:00:25;6.77;;;5.67;;
20855;SDS011;63058;49.424;8.420;2023-01-29T04:03:02;7.30;;;6.07;;
20855;SDS011;63058;49.424;8.420;2023-01-29T04:05:47;7.13;;;6.00;;
20855;SDS011;63058;49.424;8.420;2023-01-29T04:08:18;7.37;;;6.10;;
20855;SDS011;63058;49.424;8.420;2023-01-29T04:10:48;7.10;;;6.40;;
20855;SDS011;63058;49.424;8.420;2023-01-29T04:13:16;7.70;;;6.20;;
20855;SDS011;63058;49.424;8.420;2023-01-29T04:15:45;6.93;;;6.20;;
20855;SDS011;63058;49.424;8.420;2023-01-29T04:18:14;7.63;;;6.30;;
20855;SDS011;63058;49.424;8.420;2023-01-29T04:20:40;7.40;;;6.37;;
20855;SDS011;63058;49.424;8.420;2023-01-29T04:23:16;7.27;;;5.87;;
20855;SDS011;63058;49.424;8.420;2023-01-29T04:25:45;6.23;;;5.40;;
20855;SDS011;63058;49.424;8.420;2023-01-29T04:31:20;7.60;;;5.90;;
20855;SDS011;63058;49.424;8.420;2023-01-29T04:36:49;6.43;;;5.73;;
20855;SDS011;63058;49.424;8.420;2023-01-29T04:39:42;6.07;;;5.17;;
20855;SDS011;63058;49.424;8.420;2023-01-29T04:42:33;5.37;;;4.80;;
20855;SDS011;63058;49.424;8.420;2023-01-29T04:45:20;5.10;;;4.60;;
20855;SDS011;63058;49.424;8.420;2023-01-29T04:48:12;7.70;;;5.77;;
20855;SDS011;63058;49.424;8.420;2023-01-29T04:53:39;6.27;;;5.30;;
20855;SDS011;63058;49.424;8.420;2023-01-29T04:56:17;6.37;;;5.73;;
20855;SDS011;63058;49.424;8.420;2023-01-29T04:58:51;6.40;;;5.43;;
20855;SDS011;63058;49.424;8.420;2023-01-29T05:01:29;7.27;;;5.63;;
20855;SDS011;63058;49.424;8.420;2023-01-29T05:03:57;5.93;;;5.23;;
20855;SDS011;63058;49.424;8.420;2023-01-29T05:06:44;6.00;;;5.40;;
20855;SDS011;63058;49.424;8.420;2023-01-29T05:09:12;6.13;;;5.53;;
20855;SDS011;63058;49.424;8.420;2023-01-29T05:11:40;6.83;;;6.10;;
20855;SDS011;63058;49.424;8.420;2023-01-29T05:14:06;6.67;;;5.80;;
20855;SDS011;63058;49.424;8.420;2023-01-29T05:16:39;6.57;;;5.77;;
20855;SDS011;63058;49.424;8.420;2023-01-29T05:19:08;7.77;;;6.17;;
20855;SDS011;63058;49.424;8.420;2023-01-29T05:21:39;8.23;;;6.87;;
20855;SDS011;63058;49.424;8.420;2023-01-29T05:24:11;7.13;;;6.20;;
20855;SDS011;63058;49.424;8.420;2023-01-29T05:26:42;6.43;;;5.27;;
20855;SDS011;63058;49.424;8.420;2023-01-29T05:29:28;7.73;;;6.27;;
20855;SDS011;63058;49.424;8.420;2023-01-29T05:31:54;7.30;;;6.43;;
20855;SDS011;63058;49.424;8.420;2023-01-29T05:34:19;9.20;;;6.37;;
20855;SDS011;63058;49.424;8.420;2023-01-29T05:36:45;7.83;;;6.83;;
20855;SDS011;63058;49.424;8.420;2023-01-29T05:39:11;8.50;;;6.90;;
20855;SDS011;63058;49.424;8.420;2023-01-29T05:41:36;8.73;;;7.23;;
20855;SDS011;63058;49.424;8.420;2023-01-29T05:44:02;9.00;;;6.97;;
20855;SDS011;63058;49.424;8.420;2023-01-29T05:46:27;17.93;;;6.80;;
20855;SDS011;63058;49.424;8.420;2023-01-29T05:48:53;7.47;;;6.67;;
20855;SDS011;63058;49.424;8.420;2023-01-29T05:51:18;7.13;;;6.40;;
20855;SDS011;63058;49.424;8.420;2023-01-29T05:53:44;7.03;;;6.33;;
20855;SDS011;63058;49.424;8.420;2023-01-29T05:56:09;7.50;;;6.30;;
20855;SDS011;63058;49.424;8.420;2023-01-29T05:58:35;7.17;;;6.47;;
20855;SDS011;63058;49.424;8.420;2023-01-29T06:01:08;8.40;;;6.93;;
20855;SDS011;63058;49.424;8.420;2023-01-29T06:03:41;7.90;;;6.77;;
20855;SDS011;63058;49.424;8.420;2023-01-29T06:06:07;7.50;;;6.37;;
20855;SDS011;63058;49.424;8.420;2023-01-29T06:08:33;7.37;;;6.50;;
20855;SDS011;63058;49.424;8.420;2023-01-29T06:10:58;7.07;;;6.23;;
20855;SDS011;63058;49.424;8.420;2023-01-29T06:13:24;8.93;;;7.23;;
20855;SDS011;63058;49.424;8.420;2023-01-29T06:15:50;8.00;;;6.87;;
20855;SDS011;63058;49.424;8.420;2023-01-29T06:18:15;7.87;;;6.90;;
20855;SDS011;63058;49.424;8.420;2023-01-29T06:20:41;8.97;;;7.60;;
20855;SDS011;63058;49.424;8.420;2023-01-29T06:23:06;8.30;;;7.17;;
20855;SDS011;63058;49.424;8.420;2023-01-29T06:25:32;8.93;;;7.70;;
20855;SDS011;63058;49.424;8.420;2023-01-29T06:27:58;8.93;;;7.40;;
20855;SDS011;63058;49.424;8.420;2023-01-29T06:30:23;9.20;;;7.50;;
20855;SDS011;63058;49.424;8.420;2023-01-29T06:32:49;9.07;;;7.97;;
20855;SDS011;63058;49.424;8.420;2023-01-29T06:35:14;9.93;;;7.87;;
20855;SDS011;63058;49.424;8.420;2023-01-29T06:37:40;8.50;;;7.40;;
20855;SDS011;63058;49.424;8.420;2023-01-29T06:40:05;7.70;;;6.80;;
20855;SDS011;63058;49.424;8.420;2023-01-29T06:42:33;7.70;;;6.53;;
20855;SDS011;63058;49.424;8.420;2023-01-29T06:44:59;8.30;;;6.73;;
20855;SDS011;63058;49.424;8.420;2023-01-29T06:47:25;8.17;;;6.77;;
20855;SDS011;63058;49.424;8.420;2023-01-29T06:49:51;8.80;;;7.73;;
20855;SDS011;63058;49.424;8.420;2023-01-29T06:52:17;8.47;;;6.93;;
20855;SDS011;63058;49.424;8.420;2023-01-29T06:54:42;8.77;;;7.20;;
20855;SDS011;63058;49.424;8.420;2023-01-29T06:57:08;10.90;;;8.13;;
20855;SDS011;63058;49.424;8.420;2023-01-29T06:59:34;7.87;;;7.07;;
20855;SDS011;63058;49.424;8.420;2023-01-29T07:01:59;7.70;;;6.43;;
20855;SDS011;63058;49.424;8.420;2023-01-29T07:04:25;8.03;;;6.40;;
20855;SDS011;63058;49.424;8.420;2023-01-29T07:06:50;8.93;;;6.90;;
20855;SDS011;63058;49.424;8.420;2023-01-29T07:09:16;8.37;;;7.17;;
20855;SDS011;63058;49.424;8.420;2023-01-29T07:11:41;8.60;;;6.87;;
20855;SDS011;63058;49.424;8.420;2023-01-29T07:14:07;8.63;;;6.77;;
20855;SDS011;63058;49.424;8.420;2023-01-29T07:16:32;8.50;;;7.13;;
20855;SDS011;63058;49.424;8.420;2023-01-29T07:18:58;8.83;;;6.97;;
20855;SDS011;63058;49.424;8.420;2023-01-29T07:21:23;9.70;;;7.70;;
20855;SDS011;63058;49.424;8.420;2023-01-29T07:23:49;9.03;;;7.63;;
20855;SDS011;63058;49.424;8.420;2023-01-29T07:26:15;9.53;;;7.20;;
20855;SDS011;63058;49.424;8.420;2023-01-29T07:28:41;7.03;;;6.30;;
20855;SDS011;63058;49.424;8.420;2023-01-29T07:31:07;8.63;;;7.27;;
20855;SDS011;63058;49.424;8.420;2023-01-29T07:33:35;9.57;;;7.40;;
20855;SDS011;63058;49.424;8.420;2023-01-29T07:36:01;11.83;;;8.57;;
20855;SDS011;63058;49.424;8.420;2023-01-29T07:38:26;10.70;;;8.27;;
20855;SDS011;63058;49.424;8.420;2023-01-29T07:40:52;9.23;;;7.43;;
20855;SDS011;63058;49.424;8.420;2023-01-29T07:43:17;9.97;;;7.63;;
20855;SDS011;63058;49.424;8.420;2023-01-29T07:45:43;10.33;;;7.70;;
20855;SDS011;63058;49.424;8.420;2023-01-29T07:48:10;12.60;;;9.10;;
20855;SDS011;63058;49.424;8.420;2023-01-29T07:50:37;11.57;;;9.83;;
20855;SDS011;63058;49.424;8.420;2023-01-29T07:53:03;12.63;;;9.57;;
20855;SDS011;63058;49.424;8.420;2023-01-29T07:55:29;16.60;;;9.90;;
20855;SDS011;63058;49.424;8.420;2023-01-29T07:57:55;15.13;;;10.07;;
20855;SDS011;63058;49.424;8.420;2023-01-29T08:00:21;11.07;;;8.97;;
20855;SDS011;63058;49.424;8.420;2023-01-29T08:02:47;14.73;;;8.87;;
20855;SDS011;63058;49.424;8.420;2023-01-29T08:05:13;95.03;;;14.63;;
20855;SDS011;63058;49.424;8.420;2023-01-29T08:07:38;46.70;;;10.97;;
20855;SDS011;63058;49.424;8.420;2023-01-29T08:10:04;52.77;;;10.23;;
20855;SDS011;63058;49.424;8.420;2023-01-29T08:12:30;38.40;;;9.87;;
20855;SDS011;63058;49.424;8.420;2023-01-29T08:14:55;32.27;;;10.50;;
20855;SDS011;63058;49.424;8.420;2023-01-29T08:17:21;48.43;;;10.60;;
20855;SDS011;63058;49.424;8.420;2023-01-29T08:19:46;46.00;;;10.17;;
20855;SDS011;63058;49.424;8.420;2023-01-29T08:22:12;47.27;;;10.57;;
20855;SDS011;63058;49.424;8.420;2023-01-29T08:24:39;25.40;;;10.63;;
20855;SDS011;63058;49.424;8.420;2023-01-29T08:27:04;38.20;;;11.40;;
20855;SDS011;63058;49.424;8.420;2023-01-29T08:29:30;25.83;;;10.87;;
20855;SDS011;63058;49.424;8.420;2023-01-29T08:31:55;14.53;;;10.23;;
20855;SDS011;63058;49.424;8.420;2023-01-29T08:34:21;12.63;;;10.17;;
20855;SDS011;63058;49.424;8.420;2023-01-29T08:36:47;14.27;;;11.00;;
20855;SDS011;63058;49.424;8.420;2023-01-29T08:39:12;11.30;;;9.93;;
20855;SDS011;63058;49.424;8.420;2023-01-29T08:41:38;22.47;;;9.90;;
20855;SDS011;63058;49.424;8.420;2023-01-29T08:44:03;19.20;;;9.87;;
20855;SDS011;63058;49.424;8.420;2023-01-29T08:46:29;25.47;;;10.53;;
20855;SDS011;63058;49.424;8.420;2023-01-29T08:48:55;23.37;;;10.70;;
20855;SDS011;63058;49.424;8.420;2023-01-29T08:51:21;16.07;;;10.97;;
20855;SDS011;63058;49.424;8.420;2023-01-29T08:53:49;12.60;;;9.77;;
20855;SDS011;63058;49.424;8.420;2023-01-29T08:56:14;12.27;;;9.90;;
20855;SDS011;63058;49.424;8.420;2023-01-29T08:58:40;15.17;;;9.53;;
20855;SDS011;63058;49.424;8.420;2023-01-29T09:01:10;16.47;;;8.87;;
20855;SDS011;63058;49.424;8.420;2023-01-29T09:03:36;13.37;;;9.53;;
20855;SDS011;63058;49.424;8.420;2023-01-29T09:06:05;16.47;;;9.47;;
20855;SDS011;63058;49.424;8.420;2023-01-29T09:08:32;15.93;;;9.87;;
20855;SDS011;63058;49.424;8.420;2023-01-29T09:10:58;17.60;;;10.70;;
20855;SDS011;63058;49.424;8.420;2023-01-29T09:13:24;16.73;;;10.33;;
20855;SDS011;63058;49.424;8.420;2023-01-29T09:15:50;19.00;;;10.10;;
20855;SDS011;63058;49.424;8.420;2023-01-29T09:18:15;14.07;;;9.50;;
20855;SDS011;63058;49.424;8.420;2023-01-29T09:20:41;15.00;;;9.87;;
20855;SDS011;63058;49.424;8.420;2023-01-29T09:23:07;13.63;;;8.80;;
20855;SDS011;63058;49.424;8.420;2023-01-29T09:25:34;12.67;;;8.87;;
20855;SDS011;63058;49.424;8.420;2023-01-29T09:28:01;12.07;;;9.30;;
20855;SDS011;63058;49.424;8.420;2023-01-29T09:30:27;12.77;;;9.03;;
20855;SDS011;63058;49.424;8.420;2023-01-29T09:32:52;11.70;;;9.47;;
20855;SDS011;63058;49.424;8.420;2023-01-29T09:35:18;10.70;;;8.73;;
20855;SDS011;63058;49.424;8.420;2023-01-29T09:37:47;10.73;;;9.07;;
20855;SDS011;63058;49.424;8.420;2023-01-29T09:40:24;12.67;;;9.43;;
20855;SDS011;63058;49.424;8.420;2023-01-29T09:42:56;11.97;;;9.10;;
20855;SDS011;63058;49.424;8.420;2023-01-29T09:45:28;9.90;;;8.23;;
20855;SDS011;63058;49.424;8.420;2023-01-29T09:47:56;12.87;;;8.50;;
20855;SDS011;63058;49.424;8.420;2023-01-29T09:50:37;10.90;;;8.70;;
20855;SDS011;63058;49.424;8.420;2023-01-29T09:55:41;13.47;;;10.77;;
20855;SDS011;63058;49.424;8.420;2023-01-29T10:23:29;10.90;;;9.37;;
20855;SDS011;63058;49.424;8.420;2023-01-29T10:26:02;12.77;;;10.10;;
20855;SDS011;63058;49.424;8.420;2023-01-29T10:31:11;11.93;;;9.50;;
20855;SDS011;63058;49.424;8.420;2023-01-29T10:33:42;10.73;;;8.43;;
20855;SDS011;63058;49.424;8.420;2023-01-29T10:36:12;10.97;;;9.13;;
20855;SDS011;63058;49.424;8.420;2023-01-29T10:38:43;11.03;;;8.70;;
20855;SDS011;63058;49.424;8.420;2023-01-29T10:41:20;10.53;;;8.77;;
20855;SDS011;63058;49.424;8.420;2023-01-29T10:43:53;11.00;;;8.73;;
20855;SDS011;63058;49.424;8.420;2023-01-29T10:46:44;12.20;;;9.40;;
20855;SDS011;63058;49.424;8.420;2023-01-29T11:00:03;12.83;;;9.10;;
20855;SDS011;63058;49.424;8.420;2023-01-29T11:02:42;11.47;;;8.60;;
20855;SDS011;63058;49.424;8.420;2023-01-29T11:05:15;11.13;;;9.00;;
20855;SDS011;63058;49.424;8.420;2023-01-29T11:07:44;11.57;;;9.63;;
20855;SDS011;63058;49.424;8.420;2023-01-29T11:10:12;12.53;;;9.10;;
20855;SDS011;63058;49.424;8.420;2023-01-29T11:12:41;9.87;;;8.13;;
20855;SDS011;63058;49.424;8.420;2023-01-29T11:15:17;10.47;;;8.27;;
20855;SDS011;63058;49.424;8.420;2023-01-29T11:20:45;10.50;;;8.50;;
20855;SDS011;63058;49.424;8.420;2023-01-29T11:23:25;11.47;;;8.50;;
20855;SDS011;63058;49.424;8.420;2023-01-29T11:25:54;10.40;;;8.90;;
20855;SDS011;63058;49.424;8.420;2023-01-29T11:34:04;9.43;;;8.17;;
20855;SDS011;63058;49.424;8.420;2023-01-29T11:36:37;10.13;;;8.13;;
20855;SDS011;63058;49.424;8.420;2023-01-29T11:39:07;8.63;;;7.70;;
20855;SDS011;63058;49.424;8.420;2023-01-29T11:41:41;9.70;;;8.20;;
20855;SDS011;63058;49.424;8.420;2023-01-29T11:44:34;8.93;;;7.77;;
20855;SDS011;63058;49.424;8.420;2023-01-29T11:47:21;8.87;;;7.80;;
20855;SDS011;63058;49.424;8.420;2023-01-29T11:49:52;9.87;;;8.27;;
20855;SDS011;63058;49.424;8.420;2023-01-29T11:52:20;10.57;;;8.70;;
20855;SDS011;63058;49.424;8.420;2023-01-29T11:54:49;8.77;;;7.57;;
20855;SDS011;63058;49.424;8.420;2023-01-29T11:57:26;9.32;;;7.80;;
20855;SDS011;63058;49.424;8.420;2023-01-29T12:00:19;10.27;;;8.47;;
20855;SDS011;63058;49.424;8.420;2023-01-29T12:02:48;9.48;;;7.47;;
20855;SDS011;63058;49.424;8.420;2023-01-29T12:05:22;9.93;;;7.63;;
20855;SDS011;63058;49.424;8.420;2023-01-29T12:07:53;9.13;;;7.10;;
20855;SDS011;63058;49.424;8.420;2023-01-29T12:13:14;8.80;;;6.78;;
20855;SDS011;63058;49.424;8.420;2023-01-29T12:15:50;7.07;;;5.85;;
20855;SDS011;63058;49.424;8.420;2023-01-29T12:18:53;7.55;;;6.10;;
20855;SDS011;63058;49.424;8.420;2023-01-29T12:21:34;7.43;;;6.35;;
20855;SDS011;63058;49.424;8.420;2023-01-29T12:26:54;8.15;;;6.88;;
20855;SDS011;63058;49.424;8.420;2023-01-29T12:29:36;8.23;;;6.40;;
20855;SDS011;63058;49.424;8.420;2023-01-29T12:32:08;7.22;;;6.45;;
20855;SDS011;63058;49.424;8.420;2023-01-29T12:34:44;7.15;;;6.30;;
20855;SDS011;63058;49.424;8.420;2023-01-29T12:37:43;7.28;;;6.22;;
20855;SDS011;63058;49.424;8.420;2023-01-29T12:40:18;9.32;;;5.88;;
20855;SDS011;63058;49.424;8.420;2023-01-29T12:42:48;7.43;;;5.88;;
20855;SDS011;63058;49.424;8.420;2023-01-29T12:45:21;7.10;;;6.15;;
20855;SDS011;63058;49.424;8.420;2023-01-29T12:47:49;8.10;;;6.85;;
20855;SDS011;63058;49.424;8.420;2023-01-29T12:50:19;6.47;;;5.68;;
20855;SDS011;63058;49.424;8.420;2023-01-29T12:52:52;7.18;;;5.88;;
20855;SDS011;63058;49.424;8.420;2023-01-29T12:55:24;6.35;;;5.40;;
20855;SDS011;63058;49.424;8.420;2023-01-29T12:58:00;7.00;;;5.93;;
20855;SDS011;63058;49.424;8.420;2023-01-29T13:00:32;7.18;;;5.53;;
20855;SDS011;63058;49.424;8.420;2023-01-29T13:03:12;7.45;;;5.75;;
20855;SDS011;63058;49.424;8.420;2023-01-29T13:08:21;7.40;;;6.45;;
20855;SDS011;63058;49.424;8.420;2023-01-29T13:10:51;9.07;;;6.38;;
20855;SDS011;63058;49.424;8.420;2023-01-29T13:15:58;6.63;;;5.80;;
20855;SDS011;63058;49.424;8.420;2023-01-29T13:21:12;8.05;;;6.60;;
20855;SDS011;63058;49.424;8.420;2023-01-29T13:23:43;7.65;;;6.35;;
20855;SDS011;63058;49.424;8.420;2023-01-29T13:26:11;7.25;;;6.18;;
20855;SDS011;63058;49.424;8.420;2023-01-29T13:28:41;8.80;;;7.10;;
20855;SDS011;63058;49.424;8.420;2023-01-29T13:33:34;7.80;;;6.85;;
20855;SDS011;63058;49.424;8.420;2023-01-29T13:36:01;8.20;;;6.65;;
20855;SDS011;63058;49.424;8.420;2023-01-29T13:38:27;8.18;;;6.97;;
20855;SDS011;63058;49.424;8.420;2023-01-29T13:41:06;9.20;;;7.15;;
20855;SDS011;63058;49.424;8.420;2023-01-29T13:43:39;9.32;;;7.55;;
20855;SDS011;63058;49.424;8.420;2023-01-29T13:46:08;8.43;;;7.25;;
20855;SDS011;63058;49.424;8.420;2023-01-29T13:48:40;9.35;;;7.05;;
20855;SDS011;63058;49.424;8.420;2023-01-29T13:51:10;8.75;;;7.35;;
20855;SDS011;63058;49.424;8.420;2023-01-29T13:53:41;8.43;;;7.25;;
20855;SDS011;63058;49.424;8.420;2023-01-29T13:56:27;9.35;;;6.88;;
20855;SDS011;63058;49.424;8.420;2023-01-29T13:58:54;9.40;;;6.43;;
20855;SDS011;63058;49.424;8.420;2023-01-29T14:01:58;8.82;;;6.93;;
20855;SDS011;63058;49.424;8.420;2023-01-29T14:06:50;8.23;;;6.43;;
20855;SDS011;63058;49.424;8.420;2023-01-29T14:17:12;7.65;;;6.45;;
20855;SDS011;63058;49.424;8.420;2023-01-29T14:19:49;7.57;;;6.40;;
20855;SDS011;63058;49.424;8.420;2023-01-29T14:22:20;8.90;;;6.88;;
20855;SDS011;63058;49.424;8.420;2023-01-29T14:24:49;8.48;;;6.97;;
20855;SDS011;63058;49.424;8.420;2023-01-29T14:27:20;8.15;;;6.63;;
20855;SDS011;63058;49.424;8.420;2023-01-29T14:29:49;7.78;;;6.50;;
20855;SDS011;63058;49.424;8.420;2023-01-29T14:32:21;8.75;;;6.93;;
20855;SDS011;63058;49.424;8.420;2023-01-29T14:34:58;7.70;;;6.57;;
20855;SDS011;63058;49.424;8.420;2023-01-29T14:39:58;8.27;;;6.57;;
20855;SDS011;63058;49.424;8.420;2023-01-29T14:42:33;9.45;;;7.22;;
20855;SDS011;63058;49.424;8.420;2023-01-29T14:55:48;9.43;;;7.03;;
20855;SDS011;63058;49.424;8.420;2023-01-29T14:58:15;10.03;;;7.20;;
20855;SDS011;63058;49.424;8.420;2023-01-29T15:00:48;10.07;;;7.50;;
20855;SDS011;63058;49.424;8.420;2023-01-29T15:06:05;9.40;;;7.03;;
20855;SDS011;63058;49.424;8.420;2023-01-29T15:08:37;9.63;;;6.83;;
20855;SDS011;63058;49.424;8.420;2023-01-29T15:11:19;9.47;;;7.30;;
20855;SDS011;63058;49.424;8.420;2023-01-29T15:19:36;10.23;;;6.73;;
20855;SDS011;63058;49.424;8.420;2023-01-29T15:24:42;10.67;;;7.10;;
20855;SDS011;63058;49.424;8.420;2023-01-29T15:27:10;10.60;;;7.73;;
20855;SDS011;63058;49.424;8.420;2023-01-29T15:29:42;8.57;;;6.53;;
20855;SDS011;63058;49.424;8.420;2023-01-29T15:32:20;9.30;;;7.30;;
20855;SDS011;63058;49.424;8.420;2023-01-29T15:34:52;10.67;;;7.33;;
20855;SDS011;63058;49.424;8.420;2023-01-29T15:37:26;10.30;;;7.03;;
20855;SDS011;63058;49.424;8.420;2023-01-29T15:39:57;9.07;;;6.67;;
20855;SDS011;63058;49.424;8.420;2023-01-29T15:42:25;10.70;;;7.07;;
20855;SDS011;63058;49.424;8.420;2023-01-29T15:45:18;9.50;;;6.73;;
20855;SDS011;63058;49.424;8.420;2023-01-29T15:47:46;9.30;;;6.63;;
20855;SDS011;63058;49.424;8.420;2023-01-29T15:50:11;9.80;;;6.67;;
20855;SDS011;63058;49.424;8.420;2023-01-29T15:52:38;9.83;;;7.27;;
20855;SDS011;63058;49.424;8.420;2023-01-29T15:55:04;10.80;;;7.23;;
20855;SDS011;63058;49.424;8.420;2023-01-29T15:57:35;10.60;;;7.30;;
20855;SDS011;63058;49.424;8.420;2023-01-29T16:00:05;9.00;;;6.80;;
20855;SDS011;63058;49.424;8.420;2023-01-29T16:02:43;9.53;;;6.80;;
20855;SDS011;63058;49.424;8.420;2023-01-29T16:05:13;9.87;;;6.87;;
20855;SDS011;63058;49.424;8.420;2023-01-29T16:07:45;9.47;;;7.13;;
20855;SDS011;63058;49.424;8.420;2023-01-29T16:10:19;10.17;;;7.10;;
20855;SDS011;63058;49.424;8.420;2023-01-29T16:12:49;11.47;;;7.87;;
20855;SDS011;63058;49.424;8.420;2023-01-29T16:15:27;10.23;;;7.03;;
20855;SDS011;63058;49.424;8.420;2023-01-29T16:17:58;10.90;;;7.23;;
20855;SDS011;63058;49.424;8.420;2023-01-29T16:20:29;10.67;;;7.60;;
20855;SDS011;63058;49.424;8.420;2023-01-29T16:23:01;10.57;;;7.43;;
20855;SDS011;63058;49.424;8.420;2023-01-29T16:25:28;11.60;;;7.93;;
20855;SDS011;63058;49.424;8.420;2023-01-29T16:27:55;11.60;;;7.90;;
20855;SDS011;63058;49.424;8.420;2023-01-29T16:30:23;11.37;;;7.77;;
20855;SDS011;63058;49.424;8.420;2023-01-29T16:32:51;15.27;;;9.47;;
20855;SDS011;63058;49.424;8.420;2023-01-29T16:35:17;14.10;;;8.60;;
20855;SDS011;63058;49.424;8.420;2023-01-29T16:37:46;16.00;;;9.60;;
20855;SDS011;63058;49.424;8.420;2023-01-29T16:40:30;19.80;;;11.23;;
20855;SDS011;63058;49.424;8.420;2023-01-29T16:43:05;19.43;;;10.73;;
20855;SDS011;63058;49.424;8.420;2023-01-29T16:46:02;18.87;;;10.93;;
20855;SDS011;63058;49.424;8.420;2023-01-29T16:48:33;15.83;;;9.53;;
20855;SDS011;63058;49.424;8.420;2023-01-29T16:51:02;14.00;;;9.73;;
20855;SDS011;63058;49.424;8.420;2023-01-29T16:53:30;13.90;;;9.23;;
20855;SDS011;63058;49.424;8.420;2023-01-29T16:55:59;13.97;;;9.03;;
20855;SDS011;63058;49.424;8.420;2023-01-29T16:58:28;15.60;;;9.63;;
20855;SDS011;63058;49.424;8.420;2023-01-29T17:01:01;12.87;;;8.90;;
20855;SDS011;63058;49.424;8.420;2023-01-29T17:03:36;12.30;;;8.87;;
20855;SDS011;63058;49.424;8.420;2023-01-29T17:06:10;15.27;;;9.47;;
20855;SDS011;63058;49.424;8.420;2023-01-29T17:08:41;13.20;;;9.80;;
20855;SDS011;63058;49.424;8.420;2023-01-29T17:11:07;15.60;;;10.20;;
20855;SDS011;63058;49.424;8.420;2023-01-29T17:13:35;13.57;;;9.07;;
20855;SDS011;63058;49.424;8.420;2023-01-29T17:16:13;12.60;;;8.80;;